Sunday, January 21, 2018, 3:44 PM EST
Back to Local

KBAF, Westfield Barnes Municipal

Location: Westfield, MA, United States Lat: 42.167
Local Time: 3:44 PM EST (20:44 GMT) Lon: -72.717
Time Zone: US/Eastern Elev: 272 ft

Show me the last for .
Show Coded

Time T Td Feel RH Dir Speed Gust Alt SLP Vis Weather Sky Remarks
2018-01-21 14:53 46 31 42 55 290° 8 - 30.11 30.12 10 CLR None
2018-01-21 13:53 47 30 45 51 290° 5 - 30.11 30.12 10 CLR None
2018-01-21 12:53 46 30 - 53 - Calm - 30.11 30.13 10 CLR 6-hr Min Temp (1pm): 32.0°F
6-hr Max Temp (1pm): 46.0°F
2018-01-21 11:53 44 30 - 57 - Calm - 30.14 30.15 10 BKN036 None
2018-01-21 10:53 43 30 39 59 320° 7 - 30.15 30.16 10 CLR None
2018-01-21 09:53 42 30 - 62 - Calm - 30.16 30.17 10 CLR None
2018-01-21 08:53 37 29 - 72 - Calm - 30.14 30.16 10 CLR None
2018-01-21 07:53 37 29 - 72 - Calm - 30.11 30.13 10 CLR None
2018-01-21 06:53 38 29 30 69 320° 12 - 30.08 30.09 10 CLR 6-hr Min Temp (7am): 33.1°F
6-hr Max Temp (7am): 39.0°F
2018-01-21 05:53 37 29 32 72 10° 7 - 30.07 30.09 10 CLR None
2018-01-21 04:53 38 28 36 67 10° 3 - 30.05 30.06 10 CLR None
2018-01-21 03:53 37 28 29 69 310° 12 - 30.03 30.04 10 CLR None
2018-01-21 02:53 37 28 33 69 280° 5 - 30.03 30.04 10 CLR None
2018-01-21 01:53 36 27 30 69 240° 7 - 30.01 30.02 10 CLR None
2018-01-21 00:53 33 27 27 77 250° 7 - 29.99 30.00 10 CLR 6-hr Min Temp (1am): 30.9°F
6-hr Max Temp (1am): 41.0°F
2018-01-20 23:53 32 27 26 81 Variable 7 - 29.98 30.00 10 CLR 24-hr Min Temp (12am): 19.9°F
24-hr Max Temp (12am): 46.9°F
2018-01-20 22:53 34 27 29 75 270° 6 - 29.99 30.01 10 CLR None
2018-01-20 21:53 35 27 30 72 Variable 6 - 29.98 29.99 10 CLR None
2018-01-20 20:53 36 27 32 69 270° 5 - 29.95 29.97 10 CLR None
2018-01-20 19:53 31 26 25 81 Variable 6 - 29.94 29.96 10 CLR None
2018-01-20 18:53 36 27 - 69 - Calm - 29.92 29.93 10 CLR 6-hr Min Temp (7pm): 35.1°F
6-hr Max Temp (7pm): 46.9°F
2018-01-20 17:53 43 27 39 52 230° 7 - 29.87 29.89 10 CLR None
2018-01-20 16:53 45 27 42 48 250° 6 - 29.83 29.85 10 CLR None
2018-01-20 15:53 47 27 43 45 270° 9 - 29.80 29.82 10 CLR None

Support USWX by starting your Amazon purchase here.